createdAt,value
2019-02-18T00:05:29.565Z,41.64
2019-02-18T00:11:24.574Z,37.37
2019-02-18T00:17:19.558Z,38.76
2019-02-18T00:23:14.615Z,39.1
2019-02-18T00:29:09.632Z,40.28
2019-02-18T00:35:04.589Z,39.41
2019-02-18T00:40:59.608Z,39.95
2019-02-18T00:46:54.576Z,39.94
2019-02-18T00:52:49.604Z,37.94
2019-02-18T00:58:44.625Z,39.86
2019-02-18T01:04:39.696Z,41.96
2019-02-18T01:10:34.595Z,43.37
2019-02-18T01:16:29.600Z,44.34
2019-02-18T01:22:24.643Z,41.47
2019-02-18T01:28:19.614Z,42.97
2019-02-18T01:34:14.650Z,42.83
2019-02-18T01:40:09.611Z,40.03
2019-02-18T01:46:04.610Z,39.4
2019-02-18T01:51:59.629Z,39.7
2019-02-18T01:57:54.620Z,40.99
2019-02-18T02:03:49.626Z,39.14
2019-02-18T02:09:44.646Z,39.14
2019-02-18T02:15:39.655Z,40.25
2019-02-18T02:21:34.634Z,42.89
2019-02-18T02:27:29.638Z,41.66
2019-02-18T02:33:24.687Z,45.39
2019-02-18T02:39:19.675Z,44.06
2019-02-18T02:45:14.633Z,43.58
2019-02-18T02:51:09.690Z,39.9
2019-02-18T02:57:04.650Z,36.45
2019-02-18T03:02:59.692Z,39.26
2019-02-18T03:08:54.696Z,39.19
2019-02-18T03:14:49.763Z,34.73
2019-02-18T03:20:44.680Z,36.45
2019-02-18T03:26:39.678Z,37.94
2019-02-18T03:32:34.668Z,37.27
2019-02-18T03:38:31.778Z,41.38
2019-02-18T03:44:24.695Z,38.67
2019-02-18T03:50:19.707Z,37.53
2019-02-18T03:56:14.690Z,41.69
2019-02-18T04:02:09.739Z,43.81
2019-02-18T04:08:04.693Z,41.6
2019-02-18T04:13:59.707Z,41.49
2019-02-18T04:19:54.718Z,42.45
2019-02-18T04:25:49.727Z,41.4
2019-02-18T04:31:44.751Z,41.19
2019-02-18T04:37:39.717Z,39.9
2019-02-18T04:43:34.710Z,39.35
2019-02-18T04:49:29.726Z,41.37
2019-02-18T04:55:24.723Z,42.36
2019-02-18T05:01:19.794Z,42.48
2019-02-18T05:07:14.718Z,43.65
2019-02-18T05:13:09.750Z,41.35
2019-02-18T05:19:04.744Z,43.19
2019-02-18T05:24:59.729Z,40.44
2019-02-18T05:30:54.751Z,45.06
2019-02-18T05:36:49.752Z,43.55
2019-02-18T05:42:44.747Z,41.04
2019-02-18T05:48:39.783Z,42.28
2019-02-18T05:54:34.760Z,42.74
2019-02-18T06:00:29.791Z,41.72
2019-02-18T06:06:24.839Z,43.37
2019-02-18T06:12:19.764Z,43.14
2019-02-18T06:18:14.771Z,43.24
2019-02-18T06:24:09.800Z,41.91
2019-02-18T06:30:04.774Z,41.28
2019-02-18T06:35:59.790Z,41.72
2019-02-18T06:41:54.786Z,44.07
2019-02-18T06:47:49.782Z,43.86
2019-02-18T06:53:44.803Z,41.21
2019-02-18T06:59:39.857Z,40.48
2019-02-18T07:05:34.800Z,42.76
2019-02-18T07:11:29.859Z,44.55
2019-02-18T07:17:24.810Z,43.75
2019-02-18T07:23:19.800Z,45.08
2019-02-18T07:29:14.835Z,45.94
2019-02-18T07:35:09.847Z,36.77
2019-02-18T07:41:04.827Z,44.3
2019-02-18T07:46:59.808Z,44.5
2019-02-18T07:52:54.819Z,51.07
2019-02-18T07:58:49.863Z,46.83
2019-02-18T08:04:44.821Z,48.96
2019-02-18T08:10:39.859Z,46.77
2019-02-18T08:16:34.861Z,43.49
2019-02-18T08:22:29.853Z,43.46
2019-02-18T08:28:24.836Z,46.34
2019-02-18T08:34:19.849Z,54.97
2019-02-18T08:40:21.924Z,53.61
2019-02-18T08:46:09.835Z,51.54
2019-02-18T08:52:04.841Z,55.64
2019-02-18T08:57:59.851Z,52.91
2019-02-18T09:03:54.862Z,48.54
2019-02-18T09:09:51.248Z,46.27
2019-02-18T09:15:44.874Z,45.65
2019-02-18T09:21:39.871Z,43.54
2019-02-18T09:27:34.884Z,40.92
2019-02-18T09:33:29.915Z,42.53
2019-02-18T09:39:30.913Z,42.33
2019-02-18T09:45:19.874Z,42.49
2019-02-18T09:51:14.906Z,38.5
2019-02-18T09:57:09.922Z,34.28
2019-02-18T10:03:04.895Z,26.97
2019-02-18T10:08:59.910Z,24.95
2019-02-18T10:14:54.924Z,23.08
2019-02-18T10:20:49.924Z,26.25
2019-02-18T10:26:44.966Z,25.09
2019-02-18T10:32:39.898Z,25.3
2019-02-18T10:38:34.957Z,26.85
2019-02-18T10:44:29.938Z,28.2
2019-02-18T10:50:24.922Z,32.36
2019-02-18T10:56:19.972Z,35.53
2019-02-18T11:02:14.933Z,31.24
2019-02-18T11:08:09.940Z,29.06
2019-02-18T11:14:04.936Z,31.32
2019-02-18T11:19:59.940Z,31.52
2019-02-18T11:25:54.943Z,32.15
2019-02-18T11:31:49.959Z,31.16
2019-02-18T11:37:44.955Z,34.09
2019-02-18T11:43:39.946Z,32.33
2019-02-18T11:49:34.989Z,29.4
2019-02-18T11:55:29.986Z,29.14
2019-02-18T12:01:24.955Z,32.74
2019-02-18T12:07:20.067Z,29.9
2019-02-18T12:13:14.970Z,31.56
2019-02-18T12:19:09.989Z,35.34
2019-02-18T12:25:04.976Z,32.15
2019-02-18T12:31:00.011Z,29.54
2019-02-18T12:36:55.014Z,29.12
2019-02-18T12:42:50.019Z,29.25
2019-02-18T12:48:44.991Z,31.13
2019-02-18T12:54:39.995Z,29.64
2019-02-18T13:00:35.018Z,25.23
2019-02-18T13:06:30.017Z,24.26
2019-02-18T13:12:25.025Z,25.42
2019-02-18T13:18:20.037Z,24.81
2019-02-18T13:24:15.047Z,23.04
2019-02-18T13:30:10.029Z,19.59
2019-02-18T13:36:05.061Z,20.29
2019-02-18T13:42:06.999Z,21.72
2019-02-18T13:47:55.040Z,23.11
2019-02-18T13:53:50.051Z,24.51
2019-02-18T13:59:45.081Z,68
2019-02-18T14:05:40.087Z,143.03
2019-02-18T14:11:35.050Z,24.44
2019-02-18T14:17:30.156Z,25.55
2019-02-18T14:23:25.101Z,22.24
2019-02-18T14:29:20.057Z,23.96
2019-02-18T14:35:15.072Z,20.58
2019-02-18T14:41:10.092Z,30.48
2019-02-18T14:47:05.061Z,22.92
2019-02-18T14:53:00.096Z,26.4
2019-02-18T14:58:55.121Z,22.47
2019-02-18T15:04:50.096Z,18.82
2019-02-18T15:10:45.093Z,20.02
2019-02-18T15:16:40.075Z,17.62
2019-02-18T15:22:35.099Z,18.98
2019-02-18T15:28:30.109Z,17.54
2019-02-18T15:34:25.133Z,18.81
2019-02-18T15:40:20.118Z,16.28
2019-02-18T15:46:15.099Z,16.92
2019-02-18T15:52:10.118Z,16.86
2019-02-18T15:58:05.114Z,18.52
2019-02-18T16:04:00.117Z,18.56
2019-02-18T16:09:55.117Z,16.85
2019-02-18T16:15:50.125Z,19.49
2019-02-18T16:21:45.122Z,16.84
2019-02-18T16:27:40.185Z,14.38
2019-02-18T16:33:35.143Z,18.13
2019-02-18T16:39:30.223Z,18.96
2019-02-18T16:45:25.137Z,16.87
2019-02-18T16:51:20.203Z,17.02
2019-02-18T16:57:15.159Z,19.88
2019-02-18T17:03:10.152Z,17.84
2019-02-18T17:09:05.417Z,18.22
2019-02-18T17:15:00.265Z,21.22
2019-02-18T17:20:55.175Z,20.14
2019-02-18T17:26:50.200Z,19.88
2019-02-18T17:32:45.179Z,20.91
2019-02-18T17:38:40.208Z,19.83
2019-02-18T17:44:35.176Z,21.45
2019-02-18T17:50:30.181Z,21.23
2019-02-18T17:56:25.166Z,23.62
2019-02-18T18:02:20.190Z,21.67
2019-02-18T18:08:15.198Z,22.58
2019-02-18T18:14:10.243Z,21.36
2019-02-18T18:20:05.201Z,21.96
2019-02-18T18:26:00.200Z,27
2019-02-18T18:31:55.215Z,24.69
2019-02-18T18:37:50.204Z,22.83
2019-02-18T18:43:45.197Z,24.63
2019-02-18T18:49:40.217Z,23.51
2019-02-18T18:55:35.210Z,26.25
2019-02-18T19:01:30.207Z,24.59
2019-02-18T19:07:25.223Z,24.49
2019-02-18T19:13:20.226Z,23.61
2019-02-18T19:19:15.210Z,24.5
2019-02-18T19:25:10.268Z,27.32
2019-02-18T19:31:05.285Z,25.05
2019-02-18T19:37:00.267Z,25.66
2019-02-18T19:42:55.244Z,26.27
2019-02-18T19:48:50.257Z,27.79
2019-02-18T19:54:45.243Z,28.15
2019-02-18T20:00:40.274Z,28.26
2019-02-18T20:06:35.304Z,28.56
2019-02-18T20:12:30.258Z,29.97
2019-02-18T20:18:25.279Z,29.42
2019-02-18T20:24:20.275Z,28.97
2019-02-18T20:30:15.314Z,31.19
2019-02-18T20:36:10.289Z,30.76
2019-02-18T20:42:05.287Z,35.97
2019-02-18T20:48:00.284Z,37.07
2019-02-18T20:53:55.299Z,36.47
2019-02-18T20:59:50.274Z,35.36
2019-02-18T21:05:45.281Z,35.53
2019-02-18T21:11:40.345Z,31.92
2019-02-18T21:17:35.295Z,31.87
2019-02-18T21:23:30.380Z,35.07
2019-02-18T21:29:25.289Z,35.5
2019-02-18T21:35:20.328Z,36.58
2019-02-18T21:41:15.291Z,39.04
2019-02-18T21:47:10.347Z,37.02
2019-02-18T21:53:05.343Z,35.96
2019-02-18T21:59:00.324Z,37.68
2019-02-18T22:04:55.319Z,34.89
2019-02-18T22:10:50.327Z,36.91
2019-02-18T22:16:45.416Z,48.73
2019-02-18T22:22:40.417Z,41.7
2019-02-18T22:28:35.443Z,47.05
2019-02-18T22:34:30.394Z,54.6
2019-02-18T22:40:25.393Z,48.62
2019-02-18T22:46:20.431Z,50.61
2019-02-18T22:52:15.427Z,47.96
2019-02-18T22:58:10.444Z,45.28
2019-02-18T23:04:09.384Z,40.54
2019-02-18T23:10:00.422Z,36.36
2019-02-18T23:15:56.494Z,35.48
2019-02-18T23:21:50.392Z,35.76
2019-02-18T23:27:45.353Z,34.86
2019-02-18T23:33:40.382Z,33.8
2019-02-18T23:39:35.357Z,32.6
2019-02-18T23:45:30.389Z,31.6
2019-02-18T23:51:25.381Z,29.87
2019-02-18T23:57:20.388Z,29.87
